Time;durP1;ratioP1;P1;durP2;ratioP2;P2;SDS_P1;SDS_P2;PMS_P1;PMS_P2;Temp;Humidity;BMP_temperature;BMP_pressure;BME280_temperature;BME280_humidity;BME280_pressure;Samples;Min_cycle;Max_cycle;Signal;HPM_P1;HPM_P2
2023/09/20 00:08:34;;;;;;;21.85;12.20;;;12.50;99.90;;;;;;25593869;23;20421;-60
2023/09/20 00:18:37;;;;;;;21.05;12.48;;;12.70;99.90;;;;;;25595270;23;20013;-60
2023/09/20 00:28:39;;;;;;;26.17;13.13;;;12.70;99.90;;;;;;25595092;23;20013;-53
2023/09/20 00:38:41;;;;;;;24.33;12.82;;;12.40;99.90;;;;;;25594533;23;20021;-50
2023/09/20 00:48:45;;;;;;;28.63;14.15;;;12.30;99.90;;;;;;25594215;23;20048;-54
2023/09/20 00:58:47;;;;;;;22.27;13.18;;;12.20;99.90;;;;;;25567427;23;20005;-53
2023/09/20 01:08:49;;;;;;;26.75;14.65;;;12.20;99.90;;;;;;25567019;23;19997;-60
2023/09/20 01:18:51;;;;;;;28.42;15.70;;;12.20;99.90;;;;;;25592304;23;20001;-60
2023/09/20 01:28:52;;;;;;;32.15;16.35;;;12.10;99.90;;;;;;25592366;23;20718;-54
2023/09/20 01:38:56;;;;;;;32.47;17.27;;;12.00;99.90;;;;;;25590698;23;20012;-51
2023/09/20 01:48:58;;;;;;;29.40;16.52;;;12.10;99.90;;;;;;25591848;23;20089;-53
2023/09/20 01:59:00;;;;;;;32.78;15.90;;;12.30;99.90;;;;;;25591608;23;20005;-54
2023/09/20 02:09:04;;;;;;;35.58;16.80;;;12.40;99.90;;;;;;25564529;23;20380;-53
2023/09/20 02:19:07;;;;;;;32.72;17.23;;;12.50;99.90;;;;;;25564258;23;19997;-60
2023/09/20 02:29:10;;;;;;;34.60;17.85;;;12.70;99.90;;;;;;25588093;23;20017;-55
2023/09/20 02:39:15;;;;;;;29.35;15.82;;;13.10;99.90;;;;;;25589992;23;20005;-54
2023/09/20 02:49:16;;;;;;;32.47;16.05;;;13.30;99.90;;;;;;25591020;23;20005;-60
2023/09/20 02:59:20;;;;;;;27.45;14.45;;;13.60;99.90;;;;;;25307683;23;20049;-55
2023/09/20 03:09:25;;;;;;;22.80;12.55;;;13.80;99.90;;;;;;25332011;23;20014;-60
2023/09/20 03:19:27;;;;;;;22.40;11.65;;;14.00;99.90;;;;;;25331631;23;20041;-60
2023/09/20 03:29:29;;;;;;;21.02;11.25;;;13.90;99.90;;;;;;25510742;23;20010;-60
2023/09/20 03:39:35;;;;;;;18.35;9.77;;;13.80;99.90;;;;;;25587120;23;20474;-60
2023/09/20 03:49:37;;;;;;;17.92;9.70;;;14.00;99.90;;;;;;25628692;23;20079;-60
2023/09/20 03:59:41;;;;;;;21.20;9.27;;;14.10;99.90;;;;;;25560902;23;20036;-52
2023/09/20 04:09:46;;;;;;;17.35;9.00;;;14.10;99.90;;;;;;25585392;23;20001;-60
2023/09/20 04:19:48;;;;;;;18.88;8.23;;;14.20;99.90;;;;;;25588425;23;20333;-60
2023/09/20 04:29:50;;;;;;;17.70;8.73;;;14.10;99.90;;;;;;25586855;23;20044;-61
2023/09/20 04:39:52;;;;;;;16.15;8.43;;;14.20;99.90;;;;;;25584984;23;20017;-61
2023/09/20 04:49:54;;;;;;;17.92;9.10;;;14.00;99.90;;;;;;25587791;23;20081;-61
2023/09/20 04:59:56;;;;;;;14.23;8.30;;;13.70;99.90;;;;;;25593060;23;20008;-61
2023/09/20 05:09:58;;;;;;;19.13;9.95;;;13.50;99.90;;;;;;25592945;23;20005;-55
2023/09/20 05:20:01;;;;;;;18.40;9.20;;;13.40;99.90;;;;;;25566094;23;20063;-55
2023/09/20 05:30:04;;;;;;;17.70;9.55;;;13.50;99.90;;;;;;25590310;23;20336;-60
2023/09/20 05:40:17;;;;;;;14.27;8.07;;;13.60;99.90;;;;;;25591620;23;20005;-61
2023/09/20 05:50:33;;;;;;;13.55;7.28;;;14.20;99.90;;;;;;25632414;23;20001;-61
2023/09/20 06:00:35;;;;;;;13.27;7.47;;;14.40;99.90;;;;;;25454964;23;20029;-61
2023/09/20 06:10:37;;;;;;;14.50;7.43;;;14.50;99.90;;;;;;25454236;23;20369;-54
2023/09/20 06:20:39;;;;;;;11.05;6.05;;;14.60;99.90;;;;;;25454616;23;20110;-60
2023/09/20 06:30:41;;;;;;;9.68;6.13;;;14.80;99.90;;;;;;25473850;23;20506;-61
2023/09/20 06:40:51;;;;;;;13.13;6.38;;;15.20;99.90;;;;;;25589123;23;20009;-61
2023/09/20 06:50:53;;;;;;;15.10;6.10;;;15.90;99.90;;;;;;25587475;23;20506;-61
2023/09/20 07:00:59;;;;;;;11.00;5.40;;;16.40;99.90;;;;;;25588776;23;20040;-61
2023/09/20 07:11:02;;;;;;;11.25;5.00;;;16.80;99.90;;;;;;25629088;23;20009;-62
2023/09/20 07:21:04;;;;;;;10.18;4.57;;;17.40;99.90;;;;;;25588196;23;20503;-62
2023/09/20 07:31:06;;;;;;;12.15;4.82;;;18.00;99.90;;;;;;25587628;23;20013;-62
2023/09/20 07:41:09;;;;;;;9.23;4.40;;;17.80;99.90;;;;;;25587362;23;20259;-55
2023/09/20 07:51:11;;;;;;;13.45;4.85;;;17.60;99.90;;;;;;25587376;23;20009;-62
2023/09/20 08:01:24;;;;;;;13.98;4.93;;;17.80;99.90;;;;;;25587289;23;20009;-62
2023/09/20 08:11:26;;;;;;;8.85;3.65;;;18.40;99.90;;;;;;25628133;23;20461;-62
2023/09/20 08:21:29;;;;;;;8.95;5.18;;;18.60;99.90;;;;;;25587094;23;20353;-61
2023/09/20 09:02:35;;;;;;;9.38;5.13;;;18.90;99.90;;;;;;25634355;23;20032;-57
2023/09/20 09:12:37;;;;;;;9.60;5.50;;;19.20;99.90;;;;;;25592502;23;20036;-62
2023/09/20 09:22:44;;;;;;;9.18;4.43;;;19.60;99.90;;;;;;25592487;23;20001;-54
2023/09/20 09:32:47;;;;;;;9.13;3.75;;;21.20;99.90;;;;;;25608991;23;20013;-61
2023/09/20 09:42:49;;;;;;;7.28;3.40;;;22.60;99.90;;;;;;25591413;23;20005;-63
2023/09/20 09:52:51;;;;;;;7.13;3.58;;;22.90;99.90;;;;;;25591154;23;20383;-57
2023/09/20 10:02:56;;;;;;;11.10;4.60;;;23.40;99.90;;;;;;25590986;23;20001;-61
2023/09/20 10:12:57;;;;;;;7.68;3.58;;;24.20;99.90;;;;;;25565341;23;20047;-61
2023/09/20 10:23:03;;;;;;;6.20;3.22;;;24.90;99.90;;;;;;25590021;23;20009;-63
2023/09/20 10:33:06;;;;;;;7.82;3.40;;;24.50;99.90;;;;;;25605449;23;20024;-62
2023/09/20 10:43:08;;;;;;;4.90;2.88;;;23.50;99.90;;;;;;25589233;23;20005;-55
2023/09/20 10:53:12;;;;;;;6.57;3.60;;;24.90;99.90;;;;;;25588613;23;20013;-55
2023/09/20 11:03:18;;;;;;;7.45;3.10;;;25.60;99.90;;;;;;25588798;23;20075;-60
2023/09/20 11:13:22;;;;;;;6.70;3.75;;;25.60;99.50;;;;;;25629596;23;20004;-62
2023/09/20 11:23:25;;;;;;;6.13;3.53;;;24.70;99.90;;;;;;25588292;23;20005;-61
2023/09/20 11:33:28;;;;;;;8.05;2.88;;;25.00;99.90;;;;;;25587174;23;20009;-61
2023/09/20 11:43:32;;;;;;;6.50;2.58;;;25.20;99.80;;;;;;25587046;23;20005;-60
2023/09/20 11:53:34;;;;;;;6.85;3.42;;;25.10;99.90;;;;;;25586802;23;20436;-54
2023/09/20 12:03:36;;;;;;;8.05;3.05;;;25.10;99.90;;;;;;25592684;23;20424;-62
2023/09/20 12:13:38;;;;;;;6.00;3.25;;;25.80;99.90;;;;;;25595164;23;20005;-62
2023/09/20 12:23:40;;;;;;;6.55;2.30;;;25.70;99.90;;;;;;25594751;23;20001;-64
2023/09/20 12:33:42;;;;;;;4.28;2.20;;;25.00;99.90;;;;;;25594375;23;20032;-64
2023/09/20 12:43:44;;;;;;;4.72;2.47;;;24.30;99.00;;;;;;25594024;23;20036;-55
2023/09/20 12:53:46;;;;;;;8.40;3.72;;;22.50;99.90;;;;;;25593681;23;20005;-64
2023/09/20 13:03:47;;;;;;;9.45;3.30;;;22.40;99.90;;;;;;25593344;23;20375;-63
2023/09/20 13:13:50;;;;;;;6.57;2.78;;;22.40;99.90;;;;;;25592716;23;20444;-64
2023/09/20 13:23:52;;;;;;;3.78;2.17;;;22.60;99.90;;;;;;25592806;23;20001;-64
2023/09/20 13:33:53;;;;;;;11.05;4.60;;;22.50;99.90;;;;;;25592014;23;20013;-64
2023/09/20 13:43:57;;;;;;;10.90;5.00;;;22.30;99.90;;;;;;25591336;23;20032;-57
2023/09/20 13:53:58;;;;;;;8.20;3.88;;;22.00;99.90;;;;;;25591186;23;20005;-64
2023/09/20 14:04:00;;;;;;;6.28;2.90;;;21.90;99.90;;;;;;25590777;23;20380;-63
2023/09/20 14:14:02;;;;;;;7.93;3.15;;;22.30;99.90;;;;;;25590432;23;20012;-63
2023/09/20 14:24:05;;;;;;;10.23;4.13;;;22.10;99.90;;;;;;25589412;23;20005;-64
2023/09/20 14:34:06;;;;;;;7.53;4.47;;;21.10;99.90;;;;;;25589718;23;20009;-63
2023/09/20 14:44:08;;;;;;;9.68;5.43;;;20.60;99.90;;;;;;25589808;23;20072;-62
2023/09/20 14:54:10;;;;;;;13.73;6.82;;;20.10;99.90;;;;;;25589634;23;20325;-63
2023/09/20 15:04:12;;;;;;;16.77;7.30;;;20.30;99.90;;;;;;25589103;23;20016;-63
2023/09/20 15:14:14;;;;;;;13.88;5.75;;;20.30;99.90;;;;;;25589072;23;20031;-63
2023/09/20 15:24:15;;;;;;;10.43;6.60;;;20.10;99.90;;;;;;25588260;23;20005;-63
2023/09/20 15:34:18;;;;;;;9.90;5.95;;;19.20;99.90;;;;;;25587526;23;20362;-55
2023/09/20 15:44:19;;;;;;;9.50;5.28;;;18.20;99.90;;;;;;25587444;23;20008;-55
2023/09/20 15:54:21;;;;;;;10.65;6.20;;;17.60;99.90;;;;;;25588713;23;20376;-62
2023/09/20 16:04:22;;;;;;;12.52;6.90;;;17.40;99.90;;;;;;25586891;23;20033;-62
2023/09/20 16:14:24;;;;;;;15.55;8.43;;;17.30;99.90;;;;;;25586836;23;20013;-62
2023/09/20 16:24:26;;;;;;;13.20;7.80;;;17.10;99.90;;;;;;25586837;23;20032;-62
2023/09/20 16:34:28;;;;;;;16.88;10.65;;;16.90;99.90;;;;;;25587800;23;20064;-61
2023/09/20 16:44:31;;;;;;;8.50;3.15;;;16.50;99.90;;;;;;25588222;23;20009;-60
2023/09/20 16:54:33;;;;;;;11.63;5.85;;;13.40;99.90;;;;;;25594521;23;20005;-58
2023/09/20 17:04:34;;;;;;;20.42;7.93;;;12.50;99.90;;;;;;25594375;23;20009;-58
2023/09/20 17:14:36;;;;;;;30.50;16.15;;;12.60;99.90;;;;;;25593881;23;20005;-59
2023/09/20 17:24:38;;;;;;;39.28;22.38;;;12.80;99.90;;;;;;25593099;23;20013;-50
2023/09/20 17:34:40;;;;;;;39.92;24.27;;;13.20;99.90;;;;;;25592868;23;20071;-52
2023/09/20 17:44:42;;;;;;;92.82;38.90;;;13.60;99.90;;;;;;25592333;23;20004;-61
2023/09/20 17:54:43;;;;;;;47.15;29.05;;;14.00;99.90;;;;;;25591420;23;20005;-60
2023/09/20 18:04:46;;;;;;;39.08;23.70;;;14.40;99.90;;;;;;25591901;23;20005;-50
2023/09/20 18:14:48;;;;;;;642.03;43.83;;;14.50;99.90;;;;;;25592578;23;20079;-60
2023/09/20 18:24:50;;;;;;;1255.05;65.65;;;14.40;99.90;;;;;;25564969;23;20005;-48
2023/09/20 18:34:52;;;;;;;38.22;20.30;;;14.50;99.90;;;;;;25590490;23;20013;-51
2023/09/20 18:44:54;;;;;;;253.38;27.58;;;14.40;99.90;;;;;;25590378;23;20067;-61
2023/09/20 18:54:59;;;;;;;99.97;20.98;;;14.20;99.90;;;;;;25589844;23;20009;-61
2023/09/20 19:05:01;;;;;;;90.40;25.55;;;14.20;99.90;;;;;;25587129;23;20012;-61
2023/09/20 19:15:05;;;;;;;151.38;26.17;;;14.10;99.90;;;;;;25588689;23;20004;-61
2023/09/20 19:25:07;;;;;;;153.13;25.23;;;14.00;99.90;;;;;;25588517;23;20024;-51
2023/09/20 19:35:10;;;;;;;93.50;22.55;;;14.00;99.90;;;;;;25588446;23;20013;-61
2023/09/20 19:45:14;;;;;;;40.92;23.50;;;14.00;99.90;;;;;;25587926;23;20059;-61
2023/09/20 19:55:23;;;;;;;46.17;26.02;;;13.90;99.90;;;;;;25587873;23;20005;-50
2023/09/20 20:05:27;;;;;;;66.15;24.33;;;13.80;99.90;;;;;;25629203;23;20055;-61
2023/09/20 20:15:30;;;;;;;43.97;26.45;;;13.80;99.90;;;;;;25587623;23;20075;-61
2023/09/20 20:25:38;;;;;;;73.72;25.20;;;13.80;99.90;;;;;;25594159;23;20389;-61
2023/09/20 20:35:40;;;;;;;16.73;13.30;;;13.80;99.90;;;;;;25594719;23;20017;-52
2023/09/20 20:45:42;;;;;;;35.20;19.60;;;13.40;99.90;;;;;;25594739;23;20310;-60
2023/09/20 20:55:44;;;;;;;18.55;12.18;;;13.00;99.90;;;;;;25594310;23;20005;-60
2023/09/20 21:05:46;;;;;;;14.85;8.88;;;12.70;99.90;;;;;;25594040;23;20436;-60
2023/09/20 21:15:48;;;;;;;9.57;5.70;;;12.60;99.90;;;;;;25593368;23;20001;-60
2023/09/20 21:25:51;;;;;;;12.75;8.27;;;12.30;99.90;;;;;;25593400;23;20009;-61
2023/09/20 21:35:53;;;;;;;12.57;7.22;;;12.20;99.90;;;;;;25592176;23;20266;-61
2023/09/20 21:45:55;;;;;;;12.73;6.35;;;12.10;99.90;;;;;;25566328;23;20028;-53
2023/09/20 21:55:56;;;;;;;8.73;5.43;;;12.00;99.90;;;;;;25592121;23;20012;-60
2023/09/20 22:05:58;;;;;;;4.78;3.75;;;11.90;99.90;;;;;;25591945;23;20005;-48
2023/09/20 22:16:00;;;;;;;3.20;2.30;;;11.80;99.90;;;;;;25591392;23;20067;-60
2023/09/20 22:26:02;;;;;;;5.10;3.13;;;11.70;99.90;;;;;;25563900;23;20017;-60
2023/09/20 22:36:04;;;;;;;2.20;0.40;;;11.60;99.90;;;;;;25590120;23;20064;-61
2023/09/20 22:46:06;;;;;;;0.90;0.50;;;11.80;99.90;;;;;;25589941;23;20005;-61
2023/09/20 22:56:10;;;;;;;3.20;1.23;;;12.00;99.90;;;;;;25589720;23;20012;-61
2023/09/20 23:06:11;;;;;;;3.70;1.95;;;11.80;99.90;;;;;;25589165;23;20009;-61
2023/09/20 23:16:15;;;;;;;3.97;2.20;;;11.70;99.90;;;;;;25564021;23;20008;-50
2023/09/20 23:26:19;;;;;;;3.03;1.92;;;11.60;99.90;;;;;;25588693;23;20001;-52
2023/09/20 23:36:24;;;;;;;4.70;1.95;;;11.60;99.90;;;;;;25587817;23;20017;-52
2023/09/20 23:46:26;;;;;;;5.65;2.63;;;11.50;99.90;;;;;;25588154;23;20001;-53
2023/09/20 23:56:29;;;;;;;6.03;3.00;;;11.20;99.90;;;;;;25591107;23;20005;-61
